createdAt,value
2016-12-11T00:00:04.819Z,2.47
2016-12-11T00:05:05.299Z,2.75
2016-12-11T00:10:05.157Z,2.66
2016-12-11T00:15:05.058Z,2.66
2016-12-11T00:20:04.799Z,2.47
2016-12-11T00:25:04.675Z,2
2016-12-11T00:30:04.841Z,2
2016-12-11T00:35:04.368Z,2.28
2016-12-11T00:40:04.861Z,2.37
2016-12-11T00:45:04.718Z,2.09
2016-12-11T00:50:05.127Z,1.81
2016-12-11T00:55:05.074Z,1.61
2016-12-11T01:00:04.810Z,1.33
2016-12-11T01:05:05.196Z,1.23
2016-12-11T01:10:05.210Z,1.23
2016-12-11T01:15:05.243Z,1.04
2016-12-11T01:20:04.876Z,0.95
2016-12-11T01:25:04.543Z,0.85
2016-12-11T01:30:05.386Z,0.76
2016-12-11T01:35:04.822Z,0.67
2016-12-11T01:40:04.697Z,0.67
2016-12-11T01:45:04.561Z,0.67
2016-12-11T01:50:04.940Z,0.67
2016-12-11T01:55:04.772Z,0.67
2016-12-11T02:00:05.073Z,0.85
2016-12-11T02:05:04.779Z,1.23
2016-12-11T02:10:05.287Z,1.14
2016-12-11T02:15:05.444Z,1.14
2016-12-11T02:20:05.257Z,2.19
2016-12-11T02:25:04.628Z,2.56
2016-12-11T02:30:04.806Z,2.47
2016-12-11T02:35:04.966Z,2.37
2016-12-11T02:40:04.644Z,3.04
2016-12-11T02:45:05.177Z,3.33
2016-12-11T02:50:04.575Z,3.42
2016-12-11T02:55:04.577Z,3.33
2016-12-11T03:00:05.870Z,3.52
2016-12-11T03:05:08.662Z,2.95
2016-12-11T03:10:04.936Z,1.62
2016-12-11T03:15:04.750Z,1.14
2016-12-11T03:20:04.568Z,1.33
2016-12-11T03:25:05.248Z,9.99
2016-12-11T03:30:05.084Z,15.6
2016-12-11T03:35:04.651Z,21.78
2016-12-11T03:40:05.338Z,20.06
2016-12-11T03:45:05.328Z,25.76
2016-12-11T03:50:05.023Z,27.09
2016-12-11T03:55:04.884Z,27.65
2016-12-11T04:00:05.284Z,26.79
2016-12-11T04:05:06.269Z,25.85
2016-12-11T04:10:04.760Z,27.65
2016-12-11T04:15:04.741Z,26.89
2016-12-11T04:20:04.580Z,26.61
2016-12-11T04:25:04.837Z,27.65
2016-12-11T04:30:05.212Z,22.33
2016-12-11T04:35:04.668Z,18.72
2016-12-11T04:40:04.364Z,16.15
2016-12-11T04:45:04.925Z,14.44
2016-12-11T04:50:05.217Z,14.44
2016-12-11T04:55:05.211Z,15.01
2016-12-11T05:00:04.783Z,15.3
2016-12-11T05:05:05.209Z,15.2
2016-12-11T05:10:05.415Z,14.92
2016-12-11T05:15:04.537Z,15.3
2016-12-11T05:20:05.398Z,15.96
2016-12-11T05:25:04.909Z,17.58
2016-12-11T05:30:04.526Z,18.24
2016-12-11T05:35:04.671Z,20.05
2016-12-11T05:40:05.053Z,20.14
2016-12-11T05:45:04.314Z,20.42
2016-12-11T05:50:05.061Z,20.61
2016-12-11T05:55:04.557Z,20.23
2016-12-11T06:00:04.516Z,19.47
2016-12-11T06:05:04.417Z,18.71
2016-12-11T06:10:05.212Z,18.8
2016-12-11T06:15:05.220Z,18.52
2016-12-11T06:20:05.290Z,18.14
2016-12-11T06:25:05.188Z,17.85
2016-12-11T06:30:05.032Z,17.57
2016-12-11T06:35:05.447Z,17.1
2016-12-11T06:40:05.350Z,16.05
2016-12-11T06:45:05.271Z,15.39
2016-12-11T06:50:04.730Z,14.62
2016-12-11T06:55:04.754Z,14.25
2016-12-11T07:00:04.889Z,14.06
2016-12-11T07:05:04.636Z,13.77
2016-12-11T07:10:04.996Z,13.58
2016-12-11T07:15:05.101Z,13.39
2016-12-11T07:20:04.791Z,13.39
2016-12-11T07:25:05.367Z,13.1
2016-12-11T07:30:05.481Z,12.92
2016-12-11T07:35:04.832Z,13.2
2016-12-11T07:40:05.496Z,13.1
2016-12-11T07:45:04.880Z,12.73
2016-12-11T07:50:05.334Z,12.54
2016-12-11T07:55:04.564Z,11.87
2016-12-11T08:00:04.732Z,11.77
2016-12-11T08:05:05.222Z,11.21
2016-12-11T08:10:05.420Z,10.44
2016-12-11T08:15:04.485Z,10.16
2016-12-11T08:20:04.535Z,9.78
2016-12-11T08:25:04.815Z,9.69
2016-12-11T08:30:05.518Z,10.06
2016-12-11T08:35:04.863Z,9.97
2016-12-11T08:40:04.883Z,10.07
2016-12-11T08:45:05.269Z,10.55
2016-12-11T08:50:04.724Z,10.83
2016-12-11T08:55:05.024Z,11.69
2016-12-11T09:00:04.909Z,12.73
2016-12-11T09:05:04.421Z,13.87
2016-12-11T09:10:05.102Z,15.01
2016-12-11T09:15:05.142Z,16.06
2016-12-11T09:20:04.351Z,17.4
2016-12-11T09:25:04.647Z,18.73
2016-12-11T09:30:04.725Z,21.3
2016-12-11T09:35:05.011Z,21.2
2016-12-11T09:40:05.344Z,27.28
2016-12-11T09:45:05.227Z,27.76
2016-12-11T09:50:05.194Z,25.76
2016-12-11T09:55:04.727Z,25.38
2016-12-11T10:00:05.072Z,25.76
2016-12-11T10:05:04.845Z,30.44
2016-12-11T10:10:05.115Z,31.01
2016-12-11T10:15:04.445Z,31.1
2016-12-11T10:20:04.590Z,30.23
2016-12-11T10:25:04.670Z,30.99
2016-12-11T10:30:04.594Z,30.54
2016-12-11T10:35:05.290Z,32.43
2016-12-11T10:40:04.816Z,32.14
2016-12-11T10:45:05.165Z,30.33
2016-12-11T10:50:05.015Z,31.28
2016-12-11T10:55:04.830Z,32.23
2016-12-11T11:00:05.163Z,31.77
2016-12-11T11:05:05.133Z,33.1
2016-12-11T11:10:04.899Z,36.43
2016-12-11T11:15:04.702Z,35.86
2016-12-11T11:20:04.814Z,37.57
2016-12-11T11:25:05.343Z,39.38
2016-12-11T11:30:04.493Z,40.62
2016-12-11T11:35:04.948Z,56.46
2016-12-11T11:40:04.614Z,67.48
2016-12-11T11:45:04.507Z,84.26
2016-12-11T11:50:04.531Z,81.78
2016-12-11T11:55:04.915Z,81.4
2016-12-11T12:00:05.116Z,83.26
2016-12-11T12:05:05.141Z,80.6
2016-12-11T12:10:05.362Z,77.98
2016-12-11T12:15:05.106Z,73.32
2016-12-11T12:20:04.997Z,72.62
2016-12-11T12:25:05.435Z,70.52
2016-12-11T12:30:05.271Z,67.38
2016-12-11T12:35:04.960Z,66.53
2016-12-11T12:40:04.988Z,66.05
2016-12-11T12:45:04.744Z,65.67
2016-12-11T12:50:05.495Z,63.2
2016-12-11T12:55:05.135Z,59.93
2016-12-11T13:00:05.315Z,59.83
2016-12-11T13:05:04.651Z,59.74
2016-12-11T13:10:05.193Z,55.52
2016-12-11T13:15:05.291Z,52.29
2016-12-11T13:20:05.394Z,48.87
2016-12-11T13:25:05.399Z,46.49
2016-12-11T13:30:04.481Z,43.54
2016-12-11T13:35:04.800Z,41.09
2016-12-11T13:40:04.788Z,39.28
2016-12-11T13:45:05.094Z,40.14
2016-12-11T13:50:04.810Z,41.85
2016-12-11T13:55:04.840Z,44.52
2016-12-11T14:00:04.540Z,46.99
2016-12-11T14:05:05.199Z,45.37
2016-12-11T14:10:04.903Z,44.33
2016-12-11T14:15:04.850Z,41.19
2016-12-11T14:20:04.819Z,39.09
2016-12-11T14:45:04.456Z,43.16
2016-12-11T14:50:05.095Z,43.26
2016-12-11T14:55:04.903Z,43.35
2016-12-11T15:00:04.825Z,42.6
2016-12-11T15:05:04.489Z,43.54
2016-12-11T15:10:04.741Z,43.35
2016-12-11T15:15:04.533Z,44.68
2016-12-11T15:20:04.978Z,45.07
2016-12-11T15:25:05.130Z,45.54
2016-12-11T15:30:04.914Z,45.16
2016-12-11T15:35:04.752Z,44.4
2016-12-11T15:40:04.669Z,44.78
2016-12-11T15:45:05.333Z,43.54
2016-12-11T15:50:04.686Z,42.97
2016-12-11T15:55:05.440Z,42.4
2016-12-11T16:00:04.529Z,42.21
2016-12-11T16:05:05.163Z,42.02
2016-12-11T16:10:04.871Z,41.43
2016-12-11T16:15:04.799Z,40.95
2016-12-11T16:20:04.556Z,41.05
2016-12-11T16:25:05.103Z,41.24
2016-12-11T16:30:04.823Z,41.34
2016-12-11T16:35:04.590Z,41.53
2016-12-11T16:40:05.195Z,41.43
2016-12-11T16:45:04.560Z,41.24
2016-12-11T16:50:04.930Z,41.05
2016-12-11T16:55:04.702Z,40.77
2016-12-11T17:00:05.202Z,40.67
2016-12-11T17:05:04.931Z,39.53
2016-12-11T17:10:04.927Z,39.34
2016-12-11T17:15:04.412Z,38.2
2016-12-11T17:20:04.905Z,37.35
2016-12-11T17:25:04.630Z,37.35
2016-12-11T17:30:05.090Z,36.58
2016-12-11T17:35:04.792Z,34.97
2016-12-11T17:40:05.497Z,34.3
2016-12-11T17:45:04.840Z,34.11
2016-12-11T17:50:05.363Z,33.64
2016-12-11T17:55:04.781Z,33.36
2016-12-11T18:00:05.149Z,33.45
2016-12-11T18:05:04.960Z,32.88
2016-12-11T18:10:04.667Z,32.12
2016-12-11T18:15:04.958Z,32.5
2016-12-11T18:20:05.097Z,31.17
2016-12-11T18:25:04.886Z,29.74
2016-12-11T18:30:05.217Z,29.55
2016-12-11T18:35:04.553Z,28.7
2016-12-11T18:40:05.111Z,27.65
2016-12-11T18:45:04.890Z,26.98
2016-12-11T18:50:05.162Z,26.04
2016-12-11T18:55:05.351Z,25.46
2016-12-11T19:00:05.270Z,25.09
2016-12-11T19:05:05.240Z,24.33
2016-12-11T19:10:04.454Z,24.52
2016-12-11T19:15:05.410Z,24.13
2016-12-11T19:20:04.592Z,23.75
2016-12-11T19:25:05.027Z,23.57
2016-12-11T19:30:05.045Z,23.19
2016-12-11T19:35:04.841Z,22.33
2016-12-11T19:40:04.676Z,21.67
2016-12-11T19:45:05.430Z,20.24
2016-12-11T19:50:04.942Z,19.48
2016-12-11T19:55:05.163Z,18.15
2016-12-11T20:00:05.506Z,17.86
2016-12-11T20:05:05.388Z,17.86
2016-12-11T20:10:04.395Z,17.68
2016-12-11T20:15:05.338Z,17.68
2016-12-11T20:20:04.512Z,17.58
2016-12-11T20:25:05.024Z,17.96
2016-12-11T20:30:04.962Z,18.05
2016-12-11T20:35:04.584Z,18.05
2016-12-11T20:40:04.660Z,17.77
2016-12-11T20:45:05.215Z,17.58
2016-12-11T20:50:04.938Z,17.77
2016-12-11T20:55:05.137Z,18.15
2016-12-11T21:00:05.024Z,17.96
2016-12-11T21:05:04.784Z,17.77
2016-12-11T21:10:04.751Z,17.39
2016-12-11T21:15:04.458Z,16.53
2016-12-11T21:20:05.202Z,16.25
2016-12-11T21:25:04.977Z,16.44
2016-12-11T21:30:04.724Z,16.25
2016-12-11T21:35:05.004Z,16.35
2016-12-11T21:40:05.194Z,16.35
2016-12-11T21:45:04.982Z,16.25
2016-12-11T21:50:05.336Z,16.06
2016-12-11T21:55:04.946Z,16.15
2016-12-11T22:00:04.587Z,16.06
2016-12-11T22:05:05.224Z,15.96
2016-12-11T22:10:04.494Z,16.06
2016-12-11T22:15:04.524Z,16.15
2016-12-11T22:20:04.574Z,15.77
2016-12-11T22:25:05.241Z,15.67
2016-12-11T22:30:05.045Z,15.48
2016-12-11T22:35:04.902Z,15.2
2016-12-11T22:40:05.086Z,15.48
2016-12-11T22:45:04.621Z,15
2016-12-11T22:50:05.262Z,15
2016-12-11T22:55:05.272Z,14.91
2016-12-11T23:00:05.132Z,14.81
2016-12-11T23:05:04.487Z,14.62
2016-12-11T23:10:05.323Z,14.53
2016-12-11T23:15:05.253Z,14.53
2016-12-11T23:20:05.024Z,14.25
2016-12-11T23:25:04.661Z,14.25
2016-12-11T23:30:04.495Z,14.43
2016-12-11T23:35:05.429Z,14.25
2016-12-11T23:40:04.745Z,14.25
2016-12-11T23:45:04.768Z,14.14
2016-12-11T23:50:04.661Z,13.76
2016-12-11T23:55:04.456Z,13.48
